createdAt,value
2019-01-02T00:01:40.364Z,5.93
2019-01-02T00:04:09.222Z,15.47
2019-01-02T00:06:37.767Z,11.93
2019-01-02T00:09:06.788Z,17.37
2019-01-02T00:11:35.455Z,15.40
2019-01-02T00:14:04.007Z,12.80
2019-01-02T00:16:32.546Z,17.60
2019-01-02T00:19:01.136Z,16.10
2019-01-02T00:21:30.091Z,14.20
2019-01-02T00:23:58.684Z,7.60
2019-01-02T00:26:27.593Z,9.50
2019-01-02T00:28:56.153Z,13.50
2019-01-02T00:31:24.924Z,14.97
2019-01-02T00:33:53.415Z,7.23
2019-01-02T00:36:22.396Z,23.53
2019-01-02T00:38:50.928Z,8.40
2019-01-02T00:41:19.492Z,14.27
2019-01-02T00:43:48.134Z,13.47
2019-01-02T00:46:16.801Z,11.63
2019-01-02T00:48:45.381Z,5.03
2019-01-02T00:51:14.019Z,10.20
2019-01-02T00:53:42.790Z,15.30
2019-01-02T00:56:11.379Z,13.40
2019-01-02T00:58:39.930Z,7.40
2019-01-02T01:01:08.551Z,10.80
2019-01-02T01:03:43.117Z,6.50
2019-01-02T01:06:11.702Z,7.57
2019-01-02T01:08:40.269Z,4.40
2019-01-02T01:11:09.036Z,8.97
2019-01-02T01:13:37.894Z,7.33
2019-01-02T01:16:07.102Z,9.70
2019-01-02T01:18:35.825Z,6.97
2019-01-02T01:21:04.649Z,13.47
2019-01-02T01:23:33.316Z,11.33
2019-01-02T01:26:02.271Z,10.20
2019-01-02T01:28:31.212Z,1.63
2019-01-02T01:30:59.916Z,14.20
2019-01-02T01:33:28.588Z,14.20
2019-01-02T01:35:58.394Z,12.90
2019-01-02T01:38:26.989Z,8.10
2019-01-02T01:40:55.817Z,8.43
2019-01-02T01:43:24.461Z,5.23
2019-01-02T01:45:53.161Z,4.17
2019-01-02T01:48:21.752Z,8.60
2019-01-02T01:50:50.417Z,6.33
2019-01-02T01:53:19.324Z,4.20
2019-01-02T01:55:47.925Z,7.90
2019-01-02T01:58:16.532Z,9.60
2019-01-02T02:00:45.595Z,4.53
2019-01-02T02:04:11.893Z,8.17
2019-01-02T02:06:40.520Z,9.40
2019-01-02T02:09:09.104Z,8.07
2019-01-02T02:11:37.773Z,13.87
2019-01-02T02:14:06.326Z,11.70
2019-01-02T02:16:34.872Z,5.07
2019-01-02T02:19:03.404Z,2.40
2019-01-02T02:21:32.136Z,6.33
2019-01-02T02:24:00.810Z,17.97
2019-01-02T02:26:29.397Z,10.93
2019-01-02T02:28:57.905Z,16.67
2019-01-02T02:31:26.559Z,11.30
2019-01-02T02:33:55.435Z,15.97
2019-01-02T02:36:24.311Z,7.63
2019-01-02T02:38:53.219Z,5.23
2019-01-02T02:41:21.931Z,9.93
2019-01-02T02:43:51.095Z,11.73
2019-01-02T02:46:19.620Z,11.20
2019-01-02T02:48:48.181Z,11.50
2019-01-02T02:51:17.155Z,15.50
2019-01-02T02:53:46.473Z,13.30
2019-01-02T02:56:15.186Z,26.23
2019-01-02T02:58:43.933Z,14.37
2019-01-02T03:01:12.664Z,19.23
2019-01-02T03:03:41.556Z,11.73
2019-01-02T03:06:10.282Z,13.80
2019-01-02T03:08:38.848Z,14.70
2019-01-02T03:11:07.308Z,24.43
2019-01-02T03:13:36.162Z,21.67
2019-01-02T03:16:05.102Z,25.80
2019-01-02T03:18:34.103Z,29.07
2019-01-02T03:21:02.942Z,14.60
2019-01-02T03:23:31.455Z,16.43
2019-01-02T03:25:59.995Z,26.83
2019-01-02T03:28:28.716Z,19.60
2019-01-02T03:30:57.461Z,14.90
2019-01-02T03:33:26.354Z,21.17
2019-01-02T03:35:54.936Z,15.07
2019-01-02T03:38:23.386Z,27.23
2019-01-02T03:40:51.912Z,15.13
2019-01-02T03:43:20.351Z,16.00
2019-01-02T03:45:48.913Z,15.13
2019-01-02T03:48:17.520Z,21.20
2019-01-02T03:50:46.082Z,12.30
2019-01-02T03:53:14.726Z,26.80
2019-01-02T03:55:43.316Z,30.53
2019-01-02T03:58:11.857Z,17.27
2019-01-02T04:00:40.472Z,17.73
2019-01-02T04:03:08.996Z,25.07
2019-01-02T04:05:37.553Z,16.13
2019-01-02T04:08:06.095Z,32.67
2019-01-02T04:10:34.698Z,18.40
2019-01-02T04:13:03.284Z,15.23
2019-01-02T04:15:32.154Z,19.73
2019-01-02T04:18:00.675Z,27.30
2019-01-02T04:20:29.193Z,15.87
2019-01-02T04:22:57.693Z,19.97
2019-01-02T04:25:26.227Z,20.63
2019-01-02T04:27:54.712Z,23.57
2019-01-02T04:30:23.174Z,24.40
2019-01-02T04:32:51.747Z,22.60
2019-01-02T04:35:20.247Z,26.43
2019-01-02T04:37:48.744Z,21.90
2019-01-02T04:40:17.290Z,27.43
2019-01-02T04:42:45.821Z,20.80
2019-01-02T04:45:14.320Z,29.17
2019-01-02T04:47:42.907Z,16.67
2019-01-02T04:50:13.543Z,32.67
2019-01-02T04:52:42.354Z,23.27
2019-01-02T04:55:10.886Z,16.93
2019-01-02T04:57:39.473Z,29.77
2019-01-02T05:00:13.847Z,23.80
2019-01-02T05:02:42.586Z,29.30
2019-01-02T05:05:11.146Z,24.47
2019-01-02T05:07:39.622Z,11.57
2019-01-02T05:10:11.017Z,16.00
2019-01-02T05:12:39.517Z,19.30
2019-01-02T05:15:10.096Z,31.97
2019-01-02T05:17:38.673Z,24.97
2019-01-02T05:20:12.478Z,20.37
2019-01-02T05:22:40.943Z,18.60
2019-01-02T05:25:09.597Z,34.20
2019-01-02T05:27:38.196Z,16.63
2019-01-02T05:30:15.139Z,17.43
2019-01-02T05:32:43.841Z,21.70
2019-01-02T05:35:12.472Z,12.77
2019-01-02T05:37:41.131Z,23.87
2019-01-02T05:40:12.944Z,27.03
2019-01-02T05:42:41.729Z,18.90
2019-01-02T05:45:10.511Z,16.93
2019-01-02T05:47:38.950Z,24.73
2019-01-02T05:50:09.262Z,30.93
2019-01-02T05:52:38.069Z,39.47
2019-01-02T05:55:07.506Z,31.90
2019-01-02T05:57:36.056Z,25.23
2019-01-02T06:00:07.643Z,28.70
2019-01-02T06:02:36.163Z,25.43
2019-01-02T06:05:06.327Z,26.73
2019-01-02T06:07:34.910Z,21.97
2019-01-02T06:10:04.432Z,36.93
2019-01-02T06:12:32.917Z,21.27
2019-01-02T06:15:01.447Z,25.37
2019-01-02T06:17:29.938Z,13.80
2019-01-02T06:19:58.414Z,25.67
2019-01-02T06:22:26.979Z,36.30
2019-01-02T06:24:55.487Z,25.83
2019-01-02T06:27:24.026Z,31.23
2019-01-02T06:29:52.571Z,13.93
2019-01-02T06:32:21.079Z,24.90
2019-01-02T06:34:49.542Z,31.93
2019-01-02T06:37:18.101Z,24.30
2019-01-02T06:39:46.540Z,29.77
2019-01-02T06:42:15.148Z,21.70
2019-01-02T06:44:43.681Z,36.70
2019-01-02T06:47:12.133Z,21.30
2019-01-02T06:49:40.595Z,28.77
2019-01-02T06:52:09.109Z,21.60
2019-01-02T06:54:37.587Z,20.03
2019-01-02T06:57:06.018Z,25.20
2019-01-02T06:59:34.517Z,30.07
2019-01-02T07:02:03.023Z,26.97
2019-01-02T07:04:31.481Z,12.23
2019-01-02T07:06:59.985Z,22.93
2019-01-02T07:09:28.514Z,11.50
2019-01-02T07:11:56.954Z,22.60
2019-01-02T07:14:25.492Z,38.90
2019-01-02T07:16:53.982Z,18.13
2019-01-02T07:19:22.544Z,25.03
2019-01-02T07:21:50.995Z,14.03
2019-01-02T07:24:19.544Z,21.83
2019-01-02T07:26:48.347Z,29.27
2019-01-02T07:29:16.863Z,21.80
2019-01-02T07:31:45.325Z,16.93
2019-01-02T07:34:16.503Z,19.67
2019-01-02T07:37:07.167Z,23.47
2019-01-02T07:40:12.289Z,35.97
2019-01-02T07:43:01.915Z,21.43
2019-01-02T07:45:54.592Z,8.60
2019-01-02T07:48:49.548Z,16.00
2019-01-02T07:51:26.826Z,24.27
2019-01-02T07:54:13.227Z,24.50
2019-01-02T07:56:44.766Z,23.00
2019-01-02T07:59:31.398Z,21.23
2019-01-02T08:02:19.267Z,27.43
2019-01-02T08:05:10.360Z,34.80
2019-01-02T08:08:02.790Z,31.37
2019-01-02T08:11:03.280Z,35.00
2019-01-02T08:14:02.078Z,20.17
2019-01-02T08:16:48.612Z,20.17
2019-01-02T08:19:31.932Z,42.43
2019-01-02T08:22:15.503Z,22.37
2019-01-02T08:24:49.847Z,15.37
2019-01-02T08:27:33.558Z,48.00
2019-01-02T08:30:14.163Z,24.97
2019-01-02T08:32:54.685Z,27.37
2019-01-02T08:35:34.887Z,32.90
2019-01-02T08:38:15.436Z,39.93
2019-01-02T08:40:55.885Z,25.23
2019-01-02T08:43:27.439Z,14.37
2019-01-02T08:46:34.045Z,10.77
2019-01-02T08:49:29.809Z,24.07
2019-01-02T08:52:13.377Z,19.63
2019-01-02T08:54:44.985Z,26.80
2019-01-02T08:57:48.272Z,20.03
2019-01-02T09:00:31.697Z,17.10
2019-01-02T09:03:05.972Z,24.93
2019-01-02T09:05:55.761Z,22.47
2019-01-02T09:08:30.340Z,22.73
2019-01-02T09:11:01.946Z,24.53
2019-01-02T09:13:39.515Z,18.23
2019-01-02T09:16:35.438Z,16.87
2019-01-02T09:19:15.242Z,13.83
2019-01-02T09:22:15.559Z,17.23
2019-01-02T09:25:06.330Z,19.53
2019-01-02T09:28:03.310Z,19.43
2019-01-02T09:30:57.439Z,24.30
2019-01-02T09:33:38.107Z,24.70
2019-01-02T09:36:42.841Z,23.07
2019-01-02T09:39:35.800Z,18.97
2019-01-02T09:42:13.143Z,21.33
2019-01-02T09:45:02.464Z,23.70
2019-01-02T09:51:37.278Z,42.73
2019-01-02T09:54:34.065Z,24.10
2019-01-02T09:57:30.743Z,25.33
2019-01-02T10:00:25.216Z,19.27
2019-01-02T10:03:05.952Z,23.73
2019-01-02T10:06:07.662Z,21.30
2019-01-02T10:08:39.248Z,20.10
2019-01-02T10:11:16.835Z,18.50
2019-01-02T10:14:03.392Z,19.87
2019-01-02T10:16:46.733Z,12.03
2019-01-02T10:19:40.940Z,20.17
2019-01-02T10:22:27.726Z,26.10
2019-01-02T10:25:35.743Z,13.43
2019-01-02T10:28:19.320Z,10.60
2019-01-02T10:30:59.499Z,14.20
2019-01-02T10:33:50.534Z,10.27
2019-01-02T10:36:55.533Z,23.27
2019-01-02T10:39:39.091Z,8.43
2019-01-02T10:42:25.427Z,13.50
2019-01-02T10:45:31.725Z,17.63
2019-01-02T10:48:19.795Z,11.43
2019-01-02T10:51:12.336Z,13.17
2019-01-02T10:53:55.851Z,11.90
2019-01-02T10:56:33.350Z,19.53
2019-01-02T10:59:23.076Z,19.80
2019-01-02T11:02:15.636Z,21.10
2019-01-02T11:04:47.152Z,22.00
2019-01-02T11:07:24.470Z,23.23
2019-01-02T11:10:23.456Z,10.97
2019-01-02T11:12:57.769Z,23.13
2019-01-02T11:15:35.012Z,18.47
2019-01-02T11:18:21.422Z,19.50
2019-01-02T11:21:10.391Z,19.47
2019-01-02T11:24:05.991Z,11.73
2019-01-02T11:27:09.000Z,14.43
2019-01-02T11:29:55.608Z,22.53
2019-01-02T11:32:52.574Z,14.47
2019-01-02T11:35:41.719Z,19.73
2019-01-02T11:38:37.393Z,20.40
2019-01-02T11:41:11.799Z,13.83
2019-01-02T11:44:21.046Z,15.30
2019-01-02T11:46:45.495Z,12.13
2019-01-02T11:49:14.642Z,13.53
2019-01-02T11:51:43.101Z,11.77
2019-01-02T11:54:11.585Z,10.87
2019-01-02T11:56:40.247Z,16.17
2019-01-02T11:59:08.717Z,20.40
2019-01-02T12:01:37.165Z,13.73
2019-01-02T12:04:05.627Z,14.83
2019-01-02T12:06:34.057Z,11.47
2019-01-02T12:09:03.333Z,18.27
2019-01-02T12:11:31.834Z,16.27
2019-01-02T12:14:00.297Z,10.90
2019-01-02T12:16:28.802Z,19.87
2019-01-02T12:18:57.269Z,9.17
2019-01-02T12:21:25.748Z,15.03
2019-01-02T12:23:59.791Z,13.40
2019-01-02T12:26:28.815Z,14.37
2019-01-02T12:28:57.326Z,30.33
2019-01-02T12:31:25.805Z,12.63
2019-01-02T12:33:54.265Z,16.73
2019-01-02T12:36:22.750Z,13.73
2019-01-02T12:38:51.201Z,11.00
2019-01-02T12:41:19.679Z,38.20
2019-01-02T12:43:48.297Z,9.40
2019-01-02T12:46:16.748Z,14.67
2019-01-02T12:48:45.295Z,16.10
2019-01-02T12:51:14.105Z,18.20
2019-01-02T12:53:43.859Z,10.90
2019-01-02T12:56:12.652Z,11.23
2019-01-02T12:58:41.101Z,12.90
2019-01-02T13:01:11.463Z,11.63
2019-01-02T13:03:59.750Z,13.53
2019-01-02T13:06:40.322Z,8.33
2019-01-02T13:09:17.808Z,8.67
2019-01-02T13:11:49.427Z,13.40
2019-01-02T13:14:40.256Z,5.77
2019-01-02T13:17:11.806Z,7.60
2019-01-02T13:19:45.888Z,13.33
2019-01-02T13:22:23.343Z,11.03
2019-01-02T13:24:57.639Z,7.13
2019-01-02T13:27:37.989Z,9.07
2019-01-02T13:30:36.831Z,16.13
2019-01-02T13:33:23.445Z,14.70
2019-01-02T13:36:12.762Z,10.23
2019-01-02T13:38:46.912Z,5.80
2019-01-02T13:41:24.472Z,12.03
2019-01-02T13:43:58.697Z,16.17
2019-01-02T13:46:50.620Z,3.63
2019-01-02T13:49:45.777Z,8.13
2019-01-02T13:52:14.374Z,6.97
2019-01-02T13:54:42.799Z,8.30
2019-01-02T13:57:11.257Z,5.30
2019-01-02T13:59:39.798Z,13.40
2019-01-02T14:02:08.395Z,14.13
2019-01-02T14:04:37.108Z,4.03
2019-01-02T14:07:05.735Z,10.73
2019-01-02T14:09:34.287Z,6.10
2019-01-02T14:12:02.791Z,4.93
2019-01-02T14:14:32.326Z,7.90
2019-01-02T14:17:01.021Z,4.60
2019-01-02T14:19:29.637Z,5.73
2019-01-02T14:21:58.739Z,5.70
2019-01-02T14:24:27.243Z,11.00
2019-01-02T14:26:55.697Z,7.93
2019-01-02T14:29:24.786Z,10.53
2019-01-02T14:31:53.378Z,6.90
2019-01-02T14:34:22.069Z,4.13
2019-01-02T14:36:50.731Z,9.70
2019-01-02T14:39:19.376Z,5.17
2019-01-02T14:41:48.058Z,2.70
2019-01-02T14:44:18.100Z,5.40
2019-01-02T14:46:50.312Z,6.03
2019-01-02T14:49:17.076Z,4.13
2019-01-02T14:51:45.773Z,5.40
2019-01-02T14:54:14.230Z,10.80
2019-01-02T14:56:42.710Z,6.80
2019-01-02T14:59:11.250Z,4.97
2019-01-02T15:01:39.700Z,7.33
2019-01-02T15:04:08.166Z,1.37
2019-01-02T15:06:36.709Z,2.20
2019-01-02T15:09:07.281Z,7.00
2019-01-02T15:11:35.990Z,4.40
2019-01-02T15:14:04.742Z,5.70
2019-01-02T15:16:33.219Z,5.73
2019-01-02T15:19:01.745Z,15.30
2019-01-02T15:21:30.406Z,19.73
2019-01-02T15:23:58.926Z,11.93
2019-01-02T15:26:27.419Z,10.10
2019-01-02T15:28:55.889Z,9.47
2019-01-02T15:31:24.618Z,8.70
2019-01-02T15:33:53.183Z,3.83
2019-01-02T15:36:21.705Z,4.50
2019-01-02T15:38:50.208Z,3.87
2019-01-02T15:41:18.744Z,3.17
2019-01-02T15:43:47.557Z,7.20
2019-01-02T15:46:16.206Z,4.27
2019-01-02T15:48:44.765Z,11.40
2019-01-02T15:51:13.452Z,13.70
2019-01-02T15:53:41.957Z,10.60
2019-01-02T15:56:10.743Z,10.63
2019-01-02T15:58:39.385Z,4.30
2019-01-02T16:01:08.109Z,8.70
2019-01-02T16:03:36.753Z,9.80
2019-01-02T16:06:05.321Z,8.37
2019-01-02T16:08:33.946Z,8.40
2019-01-02T16:11:02.505Z,6.93
2019-01-02T16:13:30.979Z,18.27
2019-01-02T16:16:00.336Z,9.80
2019-01-02T16:18:28.979Z,9.23
2019-01-02T16:20:57.436Z,8.07
2019-01-02T16:23:25.894Z,11.30
2019-01-02T16:25:54.334Z,9.80
2019-01-02T16:28:22.790Z,5.93
2019-01-02T16:30:51.427Z,5.77
2019-01-02T16:33:19.997Z,4.57
2019-01-02T16:35:48.529Z,2.47
2019-01-02T16:38:17.090Z,15.17
2019-01-02T16:40:45.526Z,7.63
2019-01-02T16:43:13.967Z,6.43
2019-01-02T16:45:42.445Z,3.27
2019-01-02T16:48:10.898Z,5.20
2019-01-02T16:50:39.391Z,4.27
2019-01-02T16:53:07.823Z,8.03
2019-01-02T16:55:36.306Z,14.00
2019-01-02T16:58:04.931Z,7.10
2019-01-02T17:00:33.791Z,6.00
2019-01-02T17:03:02.306Z,8.83
2019-01-02T17:05:30.832Z,14.27
2019-01-02T17:07:59.462Z,9.57
2019-01-02T17:10:27.917Z,18.53
2019-01-02T17:12:56.737Z,8.47
2019-01-02T17:15:25.190Z,9.03
2019-01-02T17:17:54.039Z,10.73
2019-01-02T17:20:22.610Z,6.43
2019-01-02T17:22:51.066Z,5.50
2019-01-02T17:25:19.597Z,6.83
2019-01-02T17:27:48.130Z,8.47
2019-01-02T17:30:16.770Z,6.57
2019-01-02T17:32:45.312Z,7.47
2019-01-02T17:35:14.047Z,8.53
2019-01-02T17:37:42.829Z,8.27
2019-01-02T17:40:11.437Z,7.97
2019-01-02T17:42:40.175Z,12.03
2019-01-02T17:45:09.122Z,12.00
2019-01-02T17:47:37.576Z,8.77
2019-01-02T17:50:08.254Z,9.83
2019-01-02T17:52:36.716Z,23.47
2019-01-02T17:55:05.432Z,9.93
2019-01-02T17:57:33.930Z,13.17
2019-01-02T18:00:02.737Z,4.30
2019-01-02T18:02:31.279Z,5.17
2019-01-02T18:04:59.970Z,4.70
2019-01-02T18:07:28.806Z,8.57
2019-01-02T18:09:57.309Z,10.17
2019-01-02T18:12:25.764Z,7.70
2019-01-02T18:14:54.528Z,7.17
2019-01-02T18:17:23.047Z,9.07
2019-01-02T18:19:51.497Z,17.63
2019-01-02T18:22:20.335Z,6.40
2019-01-02T18:24:48.815Z,8.13
2019-01-02T18:27:17.297Z,14.20
2019-01-02T18:29:45.984Z,21.70
2019-01-02T18:32:14.430Z,20.73
2019-01-02T18:34:43.204Z,13.87
2019-01-02T18:37:11.899Z,8.57
2019-01-02T18:39:40.379Z,4.80
2019-01-02T18:42:08.824Z,4.50
2019-01-02T18:44:37.877Z,19.17
2019-01-02T18:47:06.682Z,19.90
2019-01-02T18:49:35.254Z,6.87
2019-01-02T18:52:03.693Z,15.43
2019-01-02T18:54:32.147Z,19.23
2019-01-02T18:57:00.606Z,12.77
2019-01-02T18:59:29.212Z,6.67
2019-01-02T19:01:57.996Z,8.50
2019-01-02T19:04:26.600Z,8.00
2019-01-02T19:06:55.267Z,6.30
2019-01-02T19:09:23.899Z,8.37
2019-01-02T19:11:52.988Z,7.33
2019-01-02T19:14:21.455Z,6.67
2019-01-02T19:16:50.009Z,9.20
2019-01-02T19:19:18.702Z,6.33
2019-01-02T19:21:47.224Z,10.13
2019-01-02T19:24:15.694Z,8.80
2019-01-02T19:26:44.599Z,14.53
2019-01-02T19:29:13.199Z,7.67
2019-01-02T19:31:41.688Z,10.07
2019-01-02T19:34:10.161Z,5.07
2019-01-02T19:36:38.890Z,7.10
2019-01-02T19:39:07.675Z,3.97
2019-01-02T19:41:36.329Z,7.67
2019-01-02T19:44:04.830Z,4.97
2019-01-02T19:46:33.418Z,3.57
2019-01-02T19:49:02.176Z,11.33
2019-01-02T19:51:30.831Z,8.83
2019-01-02T19:53:59.349Z,3.77
2019-01-02T19:56:27.962Z,4.93
2019-01-02T19:58:56.702Z,2.70
2019-01-02T20:01:26.272Z,4.07
2019-01-02T20:03:55.138Z,6.87
2019-01-02T20:06:23.642Z,5.83
2019-01-02T20:08:52.175Z,3.03
2019-01-02T20:11:20.610Z,7.30
2019-01-02T20:13:49.167Z,8.63
2019-01-02T20:16:17.677Z,9.00
2019-01-02T20:18:46.191Z,5.13
2019-01-02T20:21:14.722Z,8.07
2019-01-02T20:23:43.288Z,7.67
2019-01-02T20:26:11.750Z,11.50
2019-01-02T20:28:40.377Z,6.63
2019-01-02T20:31:09.262Z,4.27
2019-01-02T20:33:37.857Z,4.80
2019-01-02T20:36:06.471Z,11.10
2019-01-02T20:38:35.006Z,4.40
2019-01-02T20:41:03.682Z,5.97
2019-01-02T20:43:32.452Z,6.83
2019-01-02T20:46:01.148Z,9.40
2019-01-02T20:48:29.745Z,4.97
2019-01-02T20:50:58.646Z,9.13
2019-01-02T20:53:27.153Z,3.30
2019-01-02T20:55:55.964Z,10.33
2019-01-02T20:58:24.743Z,4.93
2019-01-02T21:00:53.375Z,5.40
2019-01-02T21:03:22.145Z,5.63
2019-01-02T21:05:50.754Z,6.13
2019-01-02T21:08:19.187Z,7.53
2019-01-02T21:10:47.636Z,7.07
2019-01-02T21:13:16.087Z,4.67
2019-01-02T21:15:44.573Z,14.73
2019-01-02T21:18:13.013Z,4.27
2019-01-02T21:20:41.547Z,11.43
2019-01-02T21:23:10.003Z,8.13
2019-01-02T21:25:39.519Z,8.60
2019-01-02T21:28:07.980Z,8.13
2019-01-02T21:30:36.454Z,13.97
2019-01-02T21:33:04.903Z,17.90
2019-01-02T21:35:33.368Z,17.33
2019-01-02T21:38:01.806Z,25.10
2019-01-02T21:40:30.262Z,10.60
2019-01-02T21:42:58.742Z,8.17
2019-01-02T21:45:27.289Z,7.63
2019-01-02T21:47:55.750Z,8.13
2019-01-02T21:50:24.187Z,8.23
2019-01-02T21:52:52.689Z,10.23
2019-01-02T21:55:21.143Z,9.73
2019-01-02T21:57:49.678Z,11.33
2019-01-02T22:00:18.201Z,8.40
2019-01-02T22:02:46.653Z,11.53
2019-01-02T22:05:15.123Z,8.30
2019-01-02T22:07:44.657Z,9.80
2019-01-02T22:10:13.111Z,4.43
2019-01-02T22:12:41.579Z,12.30
2019-01-02T22:15:10.670Z,7.20
2019-01-02T22:17:40.445Z,8.20
2019-01-02T22:20:09.094Z,3.27
2019-01-02T22:22:37.549Z,3.77
2019-01-02T22:25:06.751Z,4.23
2019-01-02T22:27:35.223Z,8.20
2019-01-02T22:30:04.425Z,8.03
2019-01-02T22:32:32.936Z,5.70
2019-01-02T22:35:01.461Z,4.80
2019-01-02T22:37:30.167Z,3.73
2019-01-02T22:39:58.637Z,5.93
2019-01-02T22:42:27.064Z,5.90
2019-01-02T22:44:55.524Z,9.10
2019-01-02T22:47:24.977Z,5.90
2019-01-02T22:49:53.501Z,5.13
2019-01-02T22:52:21.946Z,3.07
2019-01-02T22:54:50.411Z,8.30
2019-01-02T22:57:18.868Z,4.20
2019-01-02T22:59:47.324Z,4.53
2019-01-02T23:02:17.142Z,4.83
2019-01-02T23:04:47.231Z,3.83
2019-01-02T23:07:29.423Z,6.10
2019-01-02T23:10:05.256Z,9.60
2019-01-02T23:12:41.340Z,5.87
2019-01-02T23:15:16.938Z,7.00
2019-01-02T23:18:03.245Z,3.53
2019-01-02T23:20:49.527Z,4.83
2019-01-02T23:23:19.606Z,7.60
2019-01-02T23:26:05.899Z,8.30
2019-01-02T23:28:35.971Z,6.23
2019-01-02T23:31:22.178Z,9.20
2019-01-02T23:34:01.329Z,9.97
2019-01-02T23:36:47.566Z,7.80
2019-01-02T23:39:20.656Z,5.43
2019-01-02T23:41:50.751Z,4.10
2019-01-02T23:44:37.362Z,4.17
2019-01-02T23:47:23.595Z,5.80
2019-01-02T23:50:05.698Z,12.93
2019-01-02T23:52:38.290Z,11.77
2019-01-02T23:55:17.374Z,5.27
2019-01-02T23:57:47.557Z,6.57
